createdAt,value
2022-08-07T00:00:28.486Z,99.90
2022-08-07T00:03:00.295Z,99.90
2022-08-07T00:05:33.339Z,99.90
2022-08-07T00:08:07.837Z,99.90
2022-08-07T00:10:48.315Z,99.90
2022-08-07T00:13:26.913Z,99.90
2022-08-07T00:15:56.928Z,99.90
2022-08-07T00:18:28.278Z,99.90
2022-08-07T00:21:03.183Z,99.90
2022-08-07T00:23:42.163Z,99.90
2022-08-07T00:26:31.445Z,99.90
2022-08-07T00:29:02.957Z,99.90
2022-08-07T00:31:37.973Z,99.90
2022-08-07T00:34:10.773Z,99.90
2022-08-07T00:36:42.985Z,99.90
2022-08-07T00:39:16.579Z,99.90
2022-08-07T00:41:53.777Z,99.90
2022-08-07T00:44:30.559Z,99.90
2022-08-07T00:47:02.096Z,99.90
2022-08-07T00:50:21.132Z,99.90
2022-08-07T00:52:21.554Z,99.90
2022-08-07T00:54:53.628Z,99.90
2022-08-07T00:57:25.119Z,99.90
2022-08-07T00:59:54.669Z,99.90
2022-08-07T01:02:28.884Z,99.90
2022-08-07T01:05:00.166Z,99.90
2022-08-07T01:07:31.667Z,99.90
2022-08-07T01:10:04.880Z,99.90
2022-08-07T01:12:36.584Z,99.90
2022-08-07T01:15:06.737Z,99.90
2022-08-07T01:17:41.707Z,99.90
2022-08-07T01:20:17.196Z,99.90
2022-08-07T01:23:00.789Z,99.90
2022-08-07T01:25:55.419Z,99.90
2022-08-07T01:28:26.464Z,99.90
2022-08-07T01:30:58.595Z,99.90
2022-08-07T01:33:30.118Z,99.90
2022-08-07T01:36:18.043Z,99.90
2022-08-07T01:38:50.024Z,99.90
2022-08-07T01:41:26.225Z,99.90
2022-08-07T01:43:58.617Z,99.90
2022-08-07T01:46:28.655Z,99.90
2022-08-07T01:49:03.151Z,99.90
2022-08-07T01:52:01.153Z,99.90
2022-08-07T01:54:33.052Z,99.90
2022-08-07T01:57:24.517Z,99.90
2022-08-07T01:59:57.951Z,99.90
2022-08-07T02:03:18.298Z,99.90
2022-08-07T02:05:43.470Z,99.90
2022-08-07T02:08:27.515Z,99.90
2022-08-07T02:10:59.866Z,99.90
2022-08-07T02:13:57.177Z,99.90
2022-08-07T02:16:29.965Z,99.90
2022-08-07T02:20:04.321Z,99.90
2022-08-07T02:22:00.067Z,99.90
2022-08-07T02:24:32.305Z,99.90
2022-08-07T02:27:05.894Z,99.90
2022-08-07T02:29:43.523Z,99.90
2022-08-07T02:32:23.393Z,99.90
2022-08-07T02:34:57.954Z,99.90
2022-08-07T02:37:34.082Z,99.90
2022-08-07T02:40:33.244Z,99.90
2022-08-07T02:43:08.024Z,99.90
2022-08-07T02:46:01.601Z,99.90
2022-08-07T02:48:34.494Z,99.90
2022-08-07T02:51:28.913Z,99.90
2022-08-07T02:54:03.754Z,99.90
2022-08-07T02:56:35.510Z,99.90
2022-08-07T02:59:12.766Z,99.90
2022-08-07T03:01:42.830Z,99.90
2022-08-07T03:04:18.126Z,99.90
2022-08-07T03:06:49.435Z,99.90
2022-08-07T03:09:43.824Z,99.90
2022-08-07T03:12:21.725Z,99.90
2022-08-07T03:15:09.165Z,99.90
2022-08-07T03:17:54.013Z,99.90
2022-08-07T03:20:25.603Z,99.90
2022-08-07T03:22:56.935Z,99.90
2022-08-07T03:25:32.441Z,99.90
2022-08-07T03:28:38.173Z,99.90
2022-08-07T03:31:24.825Z,99.90
2022-08-07T03:34:01.213Z,99.90
2022-08-07T03:36:36.038Z,99.90
2022-08-07T03:39:07.668Z,99.90
2022-08-07T03:41:42.142Z,99.90
2022-08-07T03:44:21.807Z,99.90
2022-08-07T03:47:13.078Z,99.90
2022-08-07T03:49:48.076Z,99.90
2022-08-07T03:52:29.193Z,99.90
2022-08-07T03:55:07.061Z,99.90
2022-08-07T03:58:34.194Z,99.90
2022-08-07T04:00:36.489Z,99.90
2022-08-07T04:03:07.595Z,99.90
2022-08-07T04:05:45.621Z,99.90
2022-08-07T04:08:21.076Z,99.90
2022-08-07T04:10:54.831Z,99.90
2022-08-07T04:14:32.912Z,99.90
2022-08-07T04:16:33.707Z,99.90
2022-08-07T04:19:14.708Z,99.90
2022-08-07T04:21:47.925Z,99.90
2022-08-07T04:24:34.076Z,99.90
2022-08-07T04:27:15.148Z,99.90
2022-08-07T04:30:02.187Z,99.90
2022-08-07T04:32:58.386Z,99.90
2022-08-07T04:35:35.267Z,99.90
2022-08-07T04:38:09.283Z,99.90
2022-08-07T04:40:52.852Z,99.90
2022-08-07T04:44:12.497Z,99.90
2022-08-07T04:47:07.702Z,99.90
2022-08-07T04:49:58.173Z,99.90
2022-08-07T04:52:46.952Z,99.90
2022-08-07T04:58:11.902Z,99.90
2022-08-07T04:58:49.611Z,99.90
2022-08-07T05:01:22.025Z,99.90
2022-08-07T05:04:12.372Z,99.90
2022-08-07T05:06:55.050Z,99.90
2022-08-07T05:09:45.923Z,99.90
2022-08-07T05:12:30.444Z,99.90
2022-08-07T05:15:21.617Z,99.90
2022-08-07T05:18:08.681Z,99.90
2022-08-07T05:20:42.823Z,99.90
2022-08-07T05:23:17.952Z,99.90
2022-08-07T05:26:10.954Z,99.90
2022-08-07T05:28:48.551Z,99.90
2022-08-07T05:31:23.675Z,99.90
2022-08-07T05:34:04.373Z,99.90
2022-08-07T05:36:39.326Z,99.90
2022-08-07T05:40:06.030Z,99.90
2022-08-07T05:42:12.425Z,99.90
2022-08-07T05:44:52.884Z,99.90
2022-08-07T05:48:01.937Z,99.90
2022-08-07T05:50:31.943Z,99.90
2022-08-07T05:53:02.661Z,99.90
2022-08-07T05:56:03.851Z,99.90
2022-08-07T05:58:35.982Z,99.90
2022-08-07T06:01:10.485Z,99.90
2022-08-07T06:03:53.234Z,99.90
2022-08-07T06:06:29.854Z,99.90
2022-08-07T06:09:04.566Z,99.90
2022-08-07T06:11:35.129Z,99.90
2022-08-07T06:14:13.067Z,99.90
2022-08-07T06:16:56.205Z,98.70
2022-08-07T06:19:58.112Z,98.00
2022-08-07T06:22:27.146Z,97.30
2022-08-07T06:25:34.781Z,96.40
2022-08-07T06:28:07.502Z,96.60
2022-08-07T06:30:45.412Z,95.30
2022-08-07T06:33:20.458Z,94.90
2022-08-07T06:36:11.884Z,95.30
2022-08-07T06:38:59.390Z,95.20
2022-08-07T06:42:01.616Z,94.30
2022-08-07T06:44:54.522Z,94.10
2022-08-07T06:47:27.244Z,92.80
2022-08-07T06:49:59.057Z,92.20
2022-08-07T06:52:38.599Z,92.40
2022-08-07T06:55:32.082Z,91.10
2022-08-07T06:58:11.032Z,90.90
2022-08-07T07:00:59.752Z,90.30
2022-08-07T07:03:48.831Z,89.90
2022-08-07T07:06:26.531Z,90.00
2022-08-07T07:08:56.773Z,88.60
2022-08-07T07:12:09.932Z,87.90
2022-08-07T07:14:19.338Z,87.20
2022-08-07T07:16:54.631Z,86.50
2022-08-07T07:19:56.578Z,86.00
2022-08-07T07:22:36.835Z,86.00
2022-08-07T07:26:32.069Z,85.90
2022-08-07T07:28:29.505Z,85.90
2022-08-07T07:31:00.367Z,83.80
2022-08-07T07:33:32.177Z,83.90
2022-08-07T07:36:13.421Z,84.20
2022-08-07T07:38:47.640Z,83.00
2022-08-07T07:41:22.344Z,83.00
2022-08-07T07:44:17.402Z,81.50
2022-08-07T07:47:04.331Z,81.60
2022-08-07T07:50:33.398Z,81.30
2022-08-07T07:52:35.752Z,81.70
2022-08-07T07:55:06.217Z,80.30
2022-08-07T07:57:52.777Z,80.00
2022-08-07T08:00:31.457Z,78.90
2022-08-07T08:03:16.686Z,77.50
2022-08-07T08:06:02.425Z,77.20
2022-08-07T08:08:36.842Z,77.10
2022-08-07T08:11:16.255Z,77.30
2022-08-07T08:13:54.311Z,77.10
2022-08-07T08:16:35.046Z,75.90
2022-08-07T08:19:17.298Z,73.20
2022-08-07T08:22:07.831Z,73.30
2022-08-07T08:25:18.123Z,73.80
2022-08-07T08:27:56.656Z,71.70
2022-08-07T08:30:34.643Z,71.30
2022-08-07T08:33:10.405Z,71.50
2022-08-07T08:35:50.616Z,70.70
2022-08-07T08:38:25.874Z,70.60
2022-08-07T08:41:10.660Z,69.30
2022-08-07T08:43:59.133Z,68.20
2022-08-07T08:46:39.245Z,67.90
2022-08-07T08:49:18.776Z,68.60
2022-08-07T08:52:14.208Z,68.60
2022-08-07T08:54:50.852Z,67.60
2022-08-07T08:57:33.983Z,67.50
2022-08-07T09:00:08.547Z,68.10
2022-08-07T09:02:46.252Z,65.30
2022-08-07T09:05:39.161Z,65.90
2022-08-07T09:08:28.574Z,66.40
2022-08-07T09:11:08.309Z,67.00
2022-08-07T09:13:47.714Z,63.50
2022-08-07T09:16:30.156Z,63.90
2022-08-07T09:19:51.867Z,65.30
2022-08-07T09:24:28.851Z,62.70
2022-08-07T09:25:25.979Z,66.30
2022-08-07T09:28:03.313Z,63.40
2022-08-07T09:30:50.620Z,63.30
2022-08-07T09:33:52.669Z,64.00
2022-08-07T09:36:35.862Z,62.30
2022-08-07T09:39:54.901Z,61.80
2022-08-07T09:42:23.008Z,61.10
2022-08-07T09:47:24.705Z,58.00
2022-08-07T09:48:05.202Z,57.90
2022-08-07T09:50:48.349Z,57.40
2022-08-07T09:53:26.606Z,57.50
2022-08-07T09:56:52.088Z,56.70
2022-08-07T10:00:01.372Z,54.50
2022-08-07T10:04:05.847Z,54.60
2022-08-07T10:06:24.881Z,54.20
2022-08-07T10:09:34.136Z,55.50
2022-08-07T10:12:21.514Z,54.90
2022-08-07T10:15:27.259Z,53.30
2022-08-07T10:18:42.317Z,55.20
2022-08-07T10:22:12.049Z,53.20
2022-08-07T10:24:38.098Z,54.10
2022-08-07T10:27:26.774Z,54.50
2022-08-07T10:30:12.421Z,51.30
2022-08-07T10:33:03.128Z,50.80
2022-08-07T10:35:55.229Z,51.60
2022-08-07T10:38:48.348Z,52.20
2022-08-07T10:41:47.473Z,51.90
2022-08-07T10:44:38.398Z,51.40
2022-08-07T10:47:17.263Z,51.90
2022-08-07T10:49:52.011Z,51.00
2022-08-07T10:52:31.836Z,50.40
2022-08-07T10:55:27.040Z,50.90
2022-08-07T10:58:36.469Z,50.80
2022-08-07T11:01:35.796Z,52.10
2022-08-07T11:04:31.925Z,51.70
2022-08-07T11:07:14.726Z,52.20
2022-08-07T11:10:07.077Z,50.80
2022-08-07T11:12:45.644Z,50.40
2022-08-07T11:15:31.638Z,51.10
2022-08-07T11:18:09.612Z,50.00
2022-08-07T11:20:51.177Z,49.50
2022-08-07T11:23:30.920Z,48.70
2022-08-07T11:26:15.371Z,49.50
2022-08-07T11:28:55.179Z,47.90
2022-08-07T11:31:40.566Z,48.70
2022-08-07T11:34:21.556Z,48.60
2022-08-07T11:37:03.248Z,48.70
2022-08-07T11:39:59.180Z,47.60
2022-08-07T11:42:40.658Z,47.80
2022-08-07T11:45:23.734Z,47.10
2022-08-07T11:48:37.768Z,47.90
2022-08-07T11:51:41.770Z,47.80
2022-08-07T11:54:25.859Z,47.40
2022-08-07T11:57:14.252Z,48.50
2022-08-07T12:00:18.981Z,47.40
2022-08-07T12:03:44.667Z,47.40
2022-08-07T12:06:39.477Z,46.20
2022-08-07T12:10:06.870Z,45.80
2022-08-07T12:13:18.676Z,45.90
2022-08-07T12:16:13.074Z,46.40
2022-08-07T12:19:14.645Z,47.20
2022-08-07T12:22:39.024Z,45.50
2022-08-07T12:25:08.107Z,45.30
2022-08-07T12:28:08.690Z,44.30
2022-08-07T12:30:35.222Z,45.00
2022-08-07T12:33:23.504Z,45.00
2022-08-07T12:36:02.948Z,44.50
2022-08-07T12:38:42.520Z,45.30
2022-08-07T12:41:14.094Z,43.40
2022-08-07T12:44:04.005Z,43.30
2022-08-07T12:46:46.102Z,43.60
2022-08-07T12:49:48.903Z,44.90
2022-08-07T12:52:19.265Z,44.60
2022-08-07T12:55:03.523Z,44.60
2022-08-07T12:57:39.266Z,44.20
2022-08-07T13:00:35.858Z,44.70
2022-08-07T13:03:54.802Z,44.20
2022-08-07T13:06:29.038Z,43.60
2022-08-07T13:10:21.654Z,43.60
2022-08-07T13:12:10.118Z,43.50
2022-08-07T13:14:55.338Z,43.80
2022-08-07T13:17:39.901Z,42.80
2022-08-07T13:20:17.954Z,43.60
2022-08-07T13:22:55.910Z,44.40
2022-08-07T13:25:32.390Z,44.90
2022-08-07T13:28:12.921Z,45.40
2022-08-07T13:30:53.456Z,45.10
2022-08-07T13:34:31.488Z,44.90
2022-08-07T13:36:37.891Z,42.70
2022-08-07T13:39:28.550Z,42.90
2022-08-07T13:42:10.665Z,42.70
2022-08-07T13:44:41.447Z,42.90
2022-08-07T13:47:15.830Z,41.90
2022-08-07T13:50:35.277Z,42.80
2022-08-07T13:52:47.043Z,41.90
2022-08-07T13:55:26.573Z,43.20
2022-08-07T13:58:27.662Z,43.40
2022-08-07T14:01:07.975Z,44.90
2022-08-07T14:04:07.078Z,45.40
2022-08-07T14:06:34.227Z,44.70
2022-08-07T14:09:05.035Z,43.90
2022-08-07T14:11:53.255Z,43.80
2022-08-07T14:14:32.975Z,43.70
2022-08-07T14:17:32.148Z,43.20
2022-08-07T14:20:42.442Z,43.20
2022-08-07T14:22:54.209Z,44.30
2022-08-07T14:25:39.479Z,43.70
2022-08-07T14:28:13.754Z,43.30
2022-08-07T14:30:51.929Z,43.00
2022-08-07T14:33:23.656Z,44.50
2022-08-07T14:35:57.394Z,44.40
2022-08-07T14:38:31.426Z,45.10
2022-08-07T14:41:04.840Z,45.90
2022-08-07T14:43:57.493Z,46.30
2022-08-07T14:46:32.016Z,46.20
2022-08-07T14:49:17.218Z,47.00
2022-08-07T14:54:43.732Z,46.90
2022-08-07T14:57:19.195Z,45.40
2022-08-07T15:00:04.473Z,43.30
2022-08-07T15:02:39.102Z,42.40
2022-08-07T15:08:00.115Z,42.10
2022-08-07T15:10:30.560Z,40.40
2022-08-07T15:13:06.356Z,40.40
2022-08-07T15:15:52.295Z,41.60
2022-08-07T15:21:58.772Z,43.30
2022-08-07T15:25:13.407Z,44.20
2022-08-07T15:27:10.093Z,43.60
2022-08-07T15:30:10.104Z,42.40
2022-08-07T15:32:38.953Z,41.40
2022-08-07T15:35:17.003Z,41.90
2022-08-07T15:38:18.193Z,41.70
2022-08-07T16:01:42.455Z,45.20
2022-08-07T16:04:15.734Z,45.00
2022-08-07T16:06:54.565Z,45.70
2022-08-07T16:09:42.322Z,45.10
2022-08-07T16:12:28.547Z,44.20
2022-08-07T16:15:55.556Z,44.50
2022-08-07T16:18:49.745Z,44.30
2022-08-07T16:22:02.204Z,44.20
2022-08-07T16:24:33.656Z,45.20
2022-08-07T16:27:18.691Z,45.50
2022-08-07T16:30:30.723Z,46.00
2022-08-07T16:34:01.374Z,47.20
2022-08-07T16:36:20.292Z,47.70
2022-08-07T16:39:21.070Z,47.50
2022-08-07T16:42:21.604Z,46.90
2022-08-07T16:46:21.425Z,46.40
2022-08-07T16:48:58.245Z,47.00
2022-08-07T16:51:57.611Z,47.00
2022-08-07T16:54:55.561Z,47.20
2022-08-07T16:58:02.478Z,46.70
2022-08-07T17:00:29.550Z,46.80
2022-08-07T17:03:18.906Z,47.60
2022-08-07T17:06:29.894Z,47.90
2022-08-07T17:09:14.104Z,48.90
2022-08-07T17:12:04.936Z,50.40
2022-08-07T17:14:52.180Z,50.30
2022-08-07T17:17:46.237Z,51.10
2022-08-07T17:20:30.109Z,51.80
2022-08-07T17:23:08.795Z,51.40
2022-08-07T17:25:57.741Z,50.70
2022-08-07T17:28:35.475Z,49.70
2022-08-07T17:31:16.302Z,49.60
2022-08-07T17:34:15.274Z,49.60
2022-08-07T17:36:58.078Z,49.90
2022-08-07T17:39:58.436Z,50.80
2022-08-07T17:42:59.155Z,51.90
2022-08-07T17:45:35.258Z,53.90
2022-08-07T17:48:13.039Z,55.50
2022-08-07T17:50:57.800Z,56.20
2022-08-07T17:54:01.011Z,56.80
2022-08-07T17:56:29.729Z,58.00
2022-08-07T17:59:16.836Z,58.70
2022-08-07T18:01:57.074Z,59.10
2022-08-07T18:04:34.735Z,59.90
2022-08-07T18:07:34.157Z,60.40
2022-08-07T18:10:32.312Z,60.70
2022-08-07T18:13:23.291Z,61.00
2022-08-07T18:16:06.841Z,61.60
2022-08-07T18:21:02.892Z,62.10
2022-08-07T18:21:55.232Z,62.10
2022-08-07T18:25:24.187Z,62.20
2022-08-07T18:28:36.046Z,62.40
2022-08-07T18:31:09.034Z,62.40
2022-08-07T18:34:35.740Z,62.80
2022-08-07T18:46:24.437Z,63.80
2022-08-07T18:57:30.168Z,64.90
2022-08-07T19:26:23.662Z,68.60
2022-08-07T19:44:58.858Z,71.00
2022-08-07T19:48:42.316Z,71.50
2022-08-07T19:52:31.895Z,71.80
2022-08-07T21:03:03.553Z,80.00
2022-08-07T21:05:50.826Z,83.30
2022-08-07T21:08:40.836Z,83.10
2022-08-07T21:11:40.192Z,82.20
2022-08-07T21:14:35.672Z,81.00
2022-08-07T21:18:03.204Z,81.10
2022-08-07T21:24:39.992Z,82.40
2022-08-07T21:27:54.013Z,82.60
2022-08-07T21:30:53.069Z,82.60
2022-08-07T21:33:52.625Z,82.90
2022-08-07T21:36:41.579Z,83.30
2022-08-07T21:39:47.346Z,83.10
2022-08-07T21:42:46.755Z,83.10
2022-08-07T21:46:08.185Z,83.10
2022-08-07T21:48:41.466Z,83.20
2022-08-07T21:51:54.820Z,83.10
2022-08-07T21:54:46.159Z,82.90
2022-08-07T21:57:39.375Z,84.00
2022-08-07T22:00:22.816Z,83.70
2022-08-07T22:03:03.602Z,84.20
2022-08-07T22:05:44.230Z,84.30
2022-08-07T22:08:18.932Z,84.80
2022-08-07T22:10:55.161Z,84.90
2022-08-07T22:13:51.056Z,84.90
2022-08-07T22:16:38.516Z,85.40
2022-08-07T22:19:16.182Z,85.60
2022-08-07T22:22:05.213Z,85.60
2022-08-07T22:24:48.487Z,85.60
2022-08-07T22:27:34.186Z,85.60
2022-08-07T22:30:17.879Z,85.70
2022-08-07T22:32:59.402Z,86.00
2022-08-07T22:35:35.530Z,86.00
2022-08-07T22:38:27.065Z,86.30
2022-08-07T22:41:03.025Z,86.40
2022-08-07T22:43:40.630Z,86.50
2022-08-07T22:47:03.687Z,87.00
2022-08-07T22:49:37.671Z,87.00
2022-08-07T22:52:36.902Z,87.40
2022-08-07T22:55:30.293Z,87.60
2022-08-07T22:58:15.183Z,87.80
2022-08-07T23:01:06.321Z,88.10
2022-08-07T23:03:57.362Z,88.20
2022-08-07T23:06:51.650Z,88.30
2022-08-07T23:10:06.296Z,88.40
2022-08-07T23:12:35.816Z,88.40
2022-08-07T23:16:04.471Z,88.50
2022-08-07T23:18:26.064Z,88.60
2022-08-07T23:21:16.341Z,88.20
2022-08-07T23:24:11.779Z,88.20
2022-08-07T23:27:01.232Z,88.60
2022-08-07T23:30:38.622Z,88.80
2022-08-07T23:34:34.210Z,88.90
2022-08-07T23:36:28.760Z,88.90
2022-08-07T23:39:08.420Z,89.20
2022-08-07T23:42:04.399Z,89.30
2022-08-07T23:44:53.762Z,89.60
2022-08-07T23:47:46.526Z,89.80
2022-08-07T23:50:40.655Z,90.30
2022-08-07T23:53:49.953Z,90.80
2022-08-07T23:56:23.216Z,91.10
2022-08-07T23:59:10.525Z,91.20
